sensor_id;sensor_type;location;lat;lon;timestamp;pressure;altitude;pressure_sealevel;temperature;humidity
7433;BME280;32233;49.500;7.764;2023-06-26T00:00:28;98345.91;;;17.54;54.75
7433;BME280;32233;49.500;7.764;2023-06-26T00:02:54;98347.50;;;17.41;54.92
7433;BME280;32233;49.500;7.764;2023-06-26T00:05:22;98346.38;;;17.24;55.46
7433;BME280;32233;49.500;7.764;2023-06-26T00:07:48;98352.69;;;17.14;55.86
7433;BME280;32233;49.500;7.764;2023-06-26T00:10:15;98340.09;;;17.17;55.83
7433;BME280;32233;49.500;7.764;2023-06-26T00:12:41;98345.63;;;17.13;56.14
7433;BME280;32233;49.500;7.764;2023-06-26T00:15:08;98335.78;;;16.98;56.26
7433;BME280;32233;49.500;7.764;2023-06-26T00:17:35;98342.88;;;16.95;56.43
7433;BME280;32233;49.500;7.764;2023-06-26T00:20:04;98331.47;;;16.93;57.14
7433;BME280;32233;49.500;7.764;2023-06-26T00:22:38;98340.91;;;16.92;56.75
7433;BME280;32233;49.500;7.764;2023-06-26T00:25:07;98334.22;;;16.97;56.21
7433;BME280;32233;49.500;7.764;2023-06-26T00:27:34;98329.91;;;16.78;57.10
7433;BME280;32233;49.500;7.764;2023-06-26T00:30:00;98336.19;;;16.79;57.72
7433;BME280;32233;49.500;7.764;2023-06-26T00:32:27;98328.34;;;16.77;57.09
7433;BME280;32233;49.500;7.764;2023-06-26T00:34:54;98329.09;;;16.67;57.08
7433;BME280;32233;49.500;7.764;2023-06-26T00:37:20;98327.91;;;16.64;57.03
7433;BME280;32233;49.500;7.764;2023-06-26T00:39:48;98329.47;;;16.58;57.15
7433;BME280;32233;49.500;7.764;2023-06-26T00:42:14;98324.34;;;16.53;57.31
7433;BME280;32233;49.500;7.764;2023-06-26T00:44:41;98322.78;;;16.56;57.63
7433;BME280;32233;49.500;7.764;2023-06-26T00:47:09;98319.25;;;16.62;57.93
7433;BME280;32233;49.500;7.764;2023-06-26T00:49:37;98318.06;;;16.63;57.58
7433;BME280;32233;49.500;7.764;2023-06-26T00:52:03;98320.44;;;16.65;57.53
7433;BME280;32233;49.500;7.764;2023-06-26T00:54:31;98315.31;;;16.60;57.43
7433;BME280;32233;49.500;7.764;2023-06-26T00:56:57;98320.03;;;16.45;57.95
7433;BME280;32233;49.500;7.764;2023-06-26T00:59:25;98321.19;;;16.33;58.55
7433;BME280;32233;49.500;7.764;2023-06-26T01:01:53;98311.38;;;16.54;57.81
7433;BME280;32233;49.500;7.764;2023-06-26T01:04:20;98317.28;;;16.49;57.68
7433;BME280;32233;49.500;7.764;2023-06-26T01:06:47;98323.56;;;16.46;57.58
7433;BME280;32233;49.500;7.764;2023-06-26T01:09:18;98331.00;;;16.34;58.66
7433;BME280;32233;49.500;7.764;2023-06-26T01:11:46;98322.38;;;16.25;59.13
7433;BME280;32233;49.500;7.764;2023-06-26T01:14:13;98318.78;;;16.14;59.09
7433;BME280;32233;49.500;7.764;2023-06-26T01:16:41;98320.00;;;16.27;59.12
7433;BME280;32233;49.500;7.764;2023-06-26T01:19:19;98315.31;;;16.42;58.68
7433;BME280;32233;49.500;7.764;2023-06-26T01:22:27;98314.16;;;16.79;57.41
7433;BME280;32233;49.500;7.764;2023-06-26T01:27:52;98311.38;;;16.40;57.69
7433;BME280;32233;49.500;7.764;2023-06-26T01:30:20;98307.81;;;16.28;57.95
7433;BME280;32233;49.500;7.764;2023-06-26T01:32:47;98302.72;;;16.48;57.37
7433;BME280;32233;49.500;7.764;2023-06-26T01:35:15;98303.88;;;16.33;58.27
7433;BME280;32233;49.500;7.764;2023-06-26T01:37:42;98308.59;;;16.29;58.49
7433;BME280;32233;49.500;7.764;2023-06-26T01:40:09;98300.75;;;16.52;57.14
7433;BME280;32233;49.500;7.764;2023-06-26T01:42:36;98294.88;;;16.68;56.53
7433;BME280;32233;49.500;7.764;2023-06-26T01:45:13;98300.38;;;16.61;57.06
7433;BME280;32233;49.500;7.764;2023-06-26T01:47:44;98300.38;;;16.40;57.56
7433;BME280;32233;49.500;7.764;2023-06-26T01:50:17;98286.59;;;16.43;57.66
7433;BME280;32233;49.500;7.764;2023-06-26T01:53:09;98301.94;;;16.65;57.05
7433;BME280;32233;49.500;7.764;2023-06-26T01:55:50;98299.94;;;16.30;58.05
7433;BME280;32233;49.500;7.764;2023-06-26T01:58:19;98295.97;;;15.89;59.61
7433;BME280;32233;49.500;7.764;2023-06-26T02:00:48;98295.94;;;15.82;59.62
7433;BME280;32233;49.500;7.764;2023-06-26T02:03:14;98310.88;;;15.84;59.36
7433;BME280;32233;49.500;7.764;2023-06-26T02:05:41;98306.56;;;15.83;60.29
7433;BME280;32233;49.500;7.764;2023-06-26T02:08:09;98296.75;;;15.89;59.35
7433;BME280;32233;49.500;7.764;2023-06-26T02:10:35;98305.72;;;15.75;59.81
7433;BME280;32233;49.500;7.764;2023-06-26T02:13:02;98301.78;;;15.62;60.01
7433;BME280;32233;49.500;7.764;2023-06-26T02:15:29;98312.69;;;15.55;61.15
7433;BME280;32233;49.500;7.764;2023-06-26T02:17:56;98310.38;;;15.61;60.56
7433;BME280;32233;49.500;7.764;2023-06-26T02:20:22;98311.13;;;15.58;61.04
7433;BME280;32233;49.500;7.764;2023-06-26T02:22:49;98304.59;;;15.91;59.60
7433;BME280;32233;49.500;7.764;2023-06-26T02:25:17;98305.81;;;16.04;59.16
7433;BME280;32233;49.500;7.764;2023-06-26T02:27:44;98310.31;;;15.50;60.98
7433;BME280;32233;49.500;7.764;2023-06-26T02:30:11;98312.69;;;15.55;60.86
7433;BME280;32233;49.500;7.764;2023-06-26T02:32:38;98309.16;;;15.55;60.82
7433;BME280;32233;49.500;7.764;2023-06-26T02:35:05;98309.47;;;15.39;61.38
7433;BME280;32233;49.500;7.764;2023-06-26T02:37:32;98313.00;;;15.36;61.23
7433;BME280;32233;49.500;7.764;2023-06-26T02:39:58;98305.81;;;15.13;62.26
7433;BME280;32233;49.500;7.764;2023-06-26T02:42:26;98307.41;;;15.22;61.84
7433;BME280;32233;49.500;7.764;2023-06-26T02:44:52;98303.84;;;15.10;62.21
7433;BME280;32233;49.500;7.764;2023-06-26T02:47:19;98306.25;;;15.23;61.49
7433;BME280;32233;49.500;7.764;2023-06-26T02:49:45;98308.94;;;15.12;62.38
7433;BME280;32233;49.500;7.764;2023-06-26T02:52:12;98310.94;;;15.19;61.89
7433;BME280;32233;49.500;7.764;2023-06-26T02:54:39;98310.88;;;15.08;62.50
7433;BME280;32233;49.500;7.764;2023-06-26T02:57:05;98304.16;;;15.02;62.45
7433;BME280;32233;49.500;7.764;2023-06-26T02:59:33;98312.00;;;15.03;63.23
7433;BME280;32233;49.500;7.764;2023-06-26T03:02:00;98313.94;;;14.96;62.99
7433;BME280;32233;49.500;7.764;2023-06-26T03:04:35;98309.31;;;15.07;62.66
7433;BME280;32233;49.500;7.764;2023-06-26T03:07:04;98305.41;;;15.08;62.37
7433;BME280;32233;49.500;7.764;2023-06-26T03:09:31;98316.00;;;15.09;62.55
7433;BME280;32233;49.500;7.764;2023-06-26T03:11:58;98314.81;;;15.10;62.38
7433;BME280;32233;49.500;7.764;2023-06-26T03:14:24;98314.34;;;15.01;62.88
7433;BME280;32233;49.500;7.764;2023-06-26T03:16:51;98317.59;;;15.18;62.04
7433;BME280;32233;49.500;7.764;2023-06-26T03:19:19;98311.97;;;14.96;62.74
7433;BME280;32233;49.500;7.764;2023-06-26T03:22:04;98318.13;;;14.79;63.58
7433;BME280;32233;49.500;7.764;2023-06-26T03:24:31;98317.06;;;14.94;63.15
7433;BME280;32233;49.500;7.764;2023-06-26T03:26:58;98316.97;;;14.83;63.39
7433;BME280;32233;49.500;7.764;2023-06-26T03:29:24;98313.03;;;14.81;63.56
7433;BME280;32233;49.500;7.764;2023-06-26T03:31:51;98310.69;;;14.79;63.87
7433;BME280;32233;49.500;7.764;2023-06-26T03:34:19;98321.94;;;14.64;64.61
7433;BME280;32233;49.500;7.764;2023-06-26T03:36:46;98311.59;;;14.46;64.94
7433;BME280;32233;49.500;7.764;2023-06-26T03:39:13;98318.41;;;14.67;64.33
7433;BME280;32233;49.500;7.764;2023-06-26T03:41:40;98316.53;;;14.74;64.04
7433;BME280;32233;49.500;7.764;2023-06-26T03:44:06;98311.50;;;14.83;64.05
7433;BME280;32233;49.500;7.764;2023-06-26T03:46:41;98307.16;;;14.82;63.86
7433;BME280;32233;49.500;7.764;2023-06-26T03:49:07;98313.03;;;14.77;63.95
7433;BME280;32233;49.500;7.764;2023-06-26T03:51:37;98305.97;;;14.80;63.97
7433;BME280;32233;49.500;7.764;2023-06-26T03:54:04;98316.75;;;15.06;63.04
7433;BME280;32233;49.500;7.764;2023-06-26T03:56:30;98315.47;;;14.90;63.85
7433;BME280;32233;49.500;7.764;2023-06-26T03:58:57;98313.19;;;15.02;63.40
7433;BME280;32233;49.500;7.764;2023-06-26T04:01:25;98314.69;;;14.89;63.97
7433;BME280;32233;49.500;7.764;2023-06-26T04:03:52;98315.09;;;14.91;64.03
7433;BME280;32233;49.500;7.764;2023-06-26T04:06:19;98311.63;;;15.05;63.31
7433;BME280;32233;49.500;7.764;2023-06-26T04:08:45;98318.75;;;15.13;62.88
7433;BME280;32233;49.500;7.764;2023-06-26T04:11:12;98314.47;;;15.23;62.92
7433;BME280;32233;49.500;7.764;2023-06-26T04:13:38;98314.94;;;15.28;62.60
7433;BME280;32233;49.500;7.764;2023-06-26T04:16:05;98314.47;;;15.19;62.71
7433;BME280;32233;49.500;7.764;2023-06-26T04:18:33;98312.59;;;15.37;61.44
7433;BME280;32233;49.500;7.764;2023-06-26T04:21:10;98316.97;;;15.45;62.17
7433;BME280;32233;49.500;7.764;2023-06-26T04:23:39;98311.66;;;15.81;60.78
7433;BME280;32233;49.500;7.764;2023-06-26T04:26:07;98310.19;;;16.19;59.76
7433;BME280;32233;49.500;7.764;2023-06-26T04:28:34;98314.91;;;16.44;58.75
7433;BME280;32233;49.500;7.764;2023-06-26T04:31:02;98316.47;;;16.52;58.23
7433;BME280;32233;49.500;7.764;2023-06-26T04:33:30;98319.25;;;16.70;57.90
7433;BME280;32233;49.500;7.764;2023-06-26T04:35:56;98303.53;;;16.70;57.46
7433;BME280;32233;49.500;7.764;2023-06-26T04:38:24;98312.59;;;16.74;57.40
7433;BME280;32233;49.500;7.764;2023-06-26T04:40:50;98311.38;;;16.89;57.33
7433;BME280;32233;49.500;7.764;2023-06-26T04:43:17;98316.50;;;16.84;57.70
7433;BME280;32233;49.500;7.764;2023-06-26T04:45:43;98313.34;;;17.03;56.77
7433;BME280;32233;49.500;7.764;2023-06-26T04:48:10;98309.41;;;17.11;57.08
7433;BME280;32233;49.500;7.764;2023-06-26T04:50:37;98313.72;;;17.19;56.67
7433;BME280;32233;49.500;7.764;2023-06-26T04:53:04;98311.75;;;17.16;57.29
7433;BME280;32233;49.500;7.764;2023-06-26T04:55:31;98318.34;;;17.47;56.16
7433;BME280;32233;49.500;7.764;2023-06-26T04:57:57;98309.69;;;17.52;56.18
7433;BME280;32233;49.500;7.764;2023-06-26T05:00:24;98311.25;;;17.50;56.80
7433;BME280;32233;49.500;7.764;2023-06-26T05:02:51;98310.75;;;17.83;55.47
7433;BME280;32233;49.500;7.764;2023-06-26T05:05:27;98312.38;;;17.67;55.98
7433;BME280;32233;49.500;7.764;2023-06-26T05:07:55;98305.19;;;17.91;55.64
7433;BME280;32233;49.500;7.764;2023-06-26T05:10:22;98314.19;;;18.05;55.15
7433;BME280;32233;49.500;7.764;2023-06-26T05:12:49;98312.81;;;18.35;54.38
7433;BME280;32233;49.500;7.764;2023-06-26T05:15:15;98307.50;;;17.99;55.69
7433;BME280;32233;49.500;7.764;2023-06-26T05:17:42;98317.56;;;18.31;55.04
7433;BME280;32233;49.500;7.764;2023-06-26T05:20:09;98319.72;;;18.61;54.65
7433;BME280;32233;49.500;7.764;2023-06-26T05:22:37;98318.81;;;18.23;55.15
7433;BME280;32233;49.500;7.764;2023-06-26T05:25:07;98318.16;;;18.63;54.89
7433;BME280;32233;49.500;7.764;2023-06-26T05:27:35;98316.91;;;18.71;54.37
7433;BME280;32233;49.500;7.764;2023-06-26T05:30:03;98320.38;;;18.83;53.91
7433;BME280;32233;49.500;7.764;2023-06-26T05:32:30;98312.44;;;19.63;51.84
7433;BME280;32233;49.500;7.764;2023-06-26T05:35:00;98319.50;;;20.25;50.45
7433;BME280;32233;49.500;7.764;2023-06-26T05:37:28;98312.72;;;20.84;48.90
7433;BME280;32233;49.500;7.764;2023-06-26T05:39:55;98312.31;;;21.29;47.51
7433;BME280;32233;49.500;7.764;2023-06-26T05:42:22;98318.22;;;21.90;46.22
7433;BME280;32233;49.500;7.764;2023-06-26T05:44:49;98317.13;;;22.04;46.46
7433;BME280;32233;49.500;7.764;2023-06-26T05:47:15;98322.09;;;21.76;47.03
7433;BME280;32233;49.500;7.764;2023-06-26T05:49:42;98318.28;;;22.59;44.52
7433;BME280;32233;49.500;7.764;2023-06-26T05:52:09;98320.66;;;23.09;44.41
7433;BME280;32233;49.500;7.764;2023-06-26T05:54:36;98322.69;;;23.21;43.64
7433;BME280;32233;49.500;7.764;2023-06-26T05:57:03;98323.25;;;23.45;42.97
7433;BME280;32233;49.500;7.764;2023-06-26T05:59:32;98324.19;;;23.97;41.96
7433;BME280;32233;49.500;7.764;2023-06-26T06:01:58;98322.72;;;24.46;40.75
7433;BME280;32233;49.500;7.764;2023-06-26T06:04:25;98327.91;;;24.83;40.08
7433;BME280;32233;49.500;7.764;2023-06-26T06:06:52;98323.25;;;24.54;40.97
7433;BME280;32233;49.500;7.764;2023-06-26T06:09:18;98326.13;;;25.01;39.48
7433;BME280;32233;49.500;7.764;2023-06-26T06:11:45;98327.34;;;25.00;40.18
7433;BME280;32233;49.500;7.764;2023-06-26T06:14:11;98328.09;;;25.48;39.04
7433;BME280;32233;49.500;7.764;2023-06-26T06:16:38;98319.22;;;26.37;36.40
7433;BME280;32233;49.500;7.764;2023-06-26T06:19:04;98315.47;;;26.80;35.82
7433;BME280;32233;49.500;7.764;2023-06-26T06:21:33;98324.81;;;26.96;35.45
7433;BME280;32233;49.500;7.764;2023-06-26T06:23:59;98321.59;;;26.97;34.99
7433;BME280;32233;49.500;7.764;2023-06-26T06:26:27;98314.75;;;26.98;34.87
7433;BME280;32233;49.500;7.764;2023-06-26T06:28:54;98320.81;;;26.97;34.89
7433;BME280;32233;49.500;7.764;2023-06-26T06:31:20;98318.22;;;27.57;33.68
7433;BME280;32233;49.500;7.764;2023-06-26T06:33:47;98321.25;;;28.14;32.74
7433;BME280;32233;49.500;7.764;2023-06-26T06:36:13;98320.34;;;28.08;33.30
7433;BME280;32233;49.500;7.764;2023-06-26T06:38:43;98322.16;;;28.29;32.69
7433;BME280;32233;49.500;7.764;2023-06-26T06:41:10;98324.16;;;28.71;32.97
7433;BME280;32233;49.500;7.764;2023-06-26T06:43:36;98329.28;;;28.40;33.16
7433;BME280;32233;49.500;7.764;2023-06-26T06:46:03;98329.41;;;28.87;32.64
7433;BME280;32233;49.500;7.764;2023-06-26T06:48:31;98329.13;;;28.76;32.86
7433;BME280;32233;49.500;7.764;2023-06-26T06:50:57;98338.50;;;29.69;31.12
7433;BME280;32233;49.500;7.764;2023-06-26T06:53:24;98343.50;;;29.26;31.56
7433;BME280;32233;49.500;7.764;2023-06-26T06:55:50;98334.25;;;28.45;33.04
7433;BME280;32233;49.500;7.764;2023-06-26T06:58:17;98339.25;;;28.41;33.27
7433;BME280;32233;49.500;7.764;2023-06-26T07:00:45;98338.72;;;28.93;32.38
7433;BME280;32233;49.500;7.764;2023-06-26T07:03:12;98338.56;;;29.36;32.25
7433;BME280;32233;49.500;7.764;2023-06-26T07:05:40;98340.00;;;29.55;31.70
7433;BME280;32233;49.500;7.764;2023-06-26T07:08:07;98341.34;;;28.64;33.14
7433;BME280;32233;49.500;7.764;2023-06-26T07:10:35;98335.25;;;28.32;33.90
7433;BME280;32233;49.500;7.764;2023-06-26T07:13:02;98341.19;;;28.16;34.62
7433;BME280;32233;49.500;7.764;2023-06-26T07:15:29;98347.47;;;27.93;34.36
7433;BME280;32233;49.500;7.764;2023-06-26T07:17:55;98345.22;;;29.00;32.70
7433;BME280;32233;49.500;7.764;2023-06-26T07:20:22;98343.72;;;30.14;30.92
7433;BME280;32233;49.500;7.764;2023-06-26T07:22:49;98354.44;;;30.45;29.86
7433;BME280;32233;49.500;7.764;2023-06-26T07:25:16;98352.34;;;31.11;29.42
7433;BME280;32233;49.500;7.764;2023-06-26T07:27:42;98347.81;;;31.33;28.50
7433;BME280;32233;49.500;7.764;2023-06-26T07:30:09;98347.38;;;31.41;28.64
7433;BME280;32233;49.500;7.764;2023-06-26T07:32:36;98348.09;;;31.00;29.40
7433;BME280;32233;49.500;7.764;2023-06-26T07:35:04;98348.97;;;31.07;29.21
7433;BME280;32233;49.500;7.764;2023-06-26T07:37:30;98356.38;;;29.95;30.71
7433;BME280;32233;49.500;7.764;2023-06-26T07:39:57;98351.63;;;29.24;32.06
7433;BME280;32233;49.500;7.764;2023-06-26T07:42:24;98352.66;;;29.12;31.74
7433;BME280;32233;49.500;7.764;2023-06-26T07:44:50;98352.69;;;28.18;33.77
7433;BME280;32233;49.500;7.764;2023-06-26T07:47:17;98344.31;;;28.27;33.69
7433;BME280;32233;49.500;7.764;2023-06-26T07:49:43;98356.75;;;28.17;33.65
7433;BME280;32233;49.500;7.764;2023-06-26T07:52:10;98363.66;;;28.58;33.74
7433;BME280;32233;49.500;7.764;2023-06-26T07:54:37;98373.63;;;28.08;34.20
7433;BME280;32233;49.500;7.764;2023-06-26T07:57:05;98371.78;;;28.56;32.91
7433;BME280;32233;49.500;7.764;2023-06-26T07:59:35;98379.66;;;30.10;31.60
7433;BME280;32233;49.500;7.764;2023-06-26T08:02:02;98378.81;;;31.33;28.67
7433;BME280;32233;49.500;7.764;2023-06-26T08:04:29;98380.22;;;31.44;29.31
7433;BME280;32233;49.500;7.764;2023-06-26T08:06:59;98381.28;;;31.26;29.73
7433;BME280;32233;49.500;7.764;2023-06-26T08:09:28;98391.34;;;31.73;29.25
7433;BME280;32233;49.500;7.764;2023-06-26T08:11:56;98392.31;;;31.70;28.82
7433;BME280;32233;49.500;7.764;2023-06-26T08:14:23;98384.06;;;31.87;29.00
7433;BME280;32233;49.500;7.764;2023-06-26T08:16:50;98380.78;;;31.27;29.96
7433;BME280;32233;49.500;7.764;2023-06-26T08:19:17;98393.66;;;30.20;32.18
7433;BME280;32233;49.500;7.764;2023-06-26T08:21:44;98387.88;;;29.37;32.99
7433;BME280;32233;49.500;7.764;2023-06-26T08:24:11;98389.91;;;28.46;34.95
7433;BME280;32233;49.500;7.764;2023-06-26T08:26:47;98391.03;;;28.12;35.64
7433;BME280;32233;49.500;7.764;2023-06-26T08:29:14;98394.47;;;28.07;35.77
7433;BME280;32233;49.500;7.764;2023-06-26T08:31:42;98393.84;;;28.12;36.00
7433;BME280;32233;49.500;7.764;2023-06-26T08:34:08;98396.31;;;28.38;35.66
7433;BME280;32233;49.500;7.764;2023-06-26T08:36:35;98392.25;;;28.39;35.10
7433;BME280;32233;49.500;7.764;2023-06-26T08:39:02;98391.22;;;28.69;35.41
7433;BME280;32233;49.500;7.764;2023-06-26T08:41:29;98381.78;;;28.81;35.24
7433;BME280;32233;49.500;7.764;2023-06-26T08:43:56;98397.63;;;28.60;35.80
7433;BME280;32233;49.500;7.764;2023-06-26T08:46:22;98381.56;;;28.10;36.50
7433;BME280;32233;49.500;7.764;2023-06-26T08:48:56;98389.72;;;28.50;36.12
7433;BME280;32233;49.500;7.764;2023-06-26T08:51:24;98392.25;;;28.39;35.32
7433;BME280;32233;49.500;7.764;2023-06-26T08:53:57;98396.34;;;28.28;35.87
7433;BME280;32233;49.500;7.764;2023-06-26T08:56:27;98394.44;;;28.77;34.78
7433;BME280;32233;49.500;7.764;2023-06-26T08:58:55;98386.72;;;29.05;34.90
7433;BME280;32233;49.500;7.764;2023-06-26T09:01:22;98387.41;;;28.90;34.97
7433;BME280;32233;49.500;7.764;2023-06-26T09:03:51;98400.84;;;28.77;35.53
7433;BME280;32233;49.500;7.764;2023-06-26T09:06:18;98401.38;;;29.00;35.31
7433;BME280;32233;49.500;7.764;2023-06-26T09:08:45;98396.00;;;28.78;34.64
7433;BME280;32233;49.500;7.764;2023-06-26T09:11:11;98395.91;;;28.63;35.35
7433;BME280;32233;49.500;7.764;2023-06-26T09:13:37;98401.06;;;28.98;34.73
7433;BME280;32233;49.500;7.764;2023-06-26T09:16:09;98398.84;;;29.11;34.69
7433;BME280;32233;49.500;7.764;2023-06-26T09:18:36;98394.75;;;28.18;36.20
7433;BME280;32233;49.500;7.764;2023-06-26T09:21:09;98393.25;;;28.69;35.48
7433;BME280;32233;49.500;7.764;2023-06-26T09:23:36;98395.03;;;28.90;35.10
7433;BME280;32233;49.500;7.764;2023-06-26T09:26:04;98395.53;;;29.12;34.65
7433;BME280;32233;49.500;7.764;2023-06-26T09:28:32;98397.47;;;29.30;34.06
7433;BME280;32233;49.500;7.764;2023-06-26T09:31:03;98406.00;;;29.12;33.77
7433;BME280;32233;49.500;7.764;2023-06-26T09:33:35;98408.13;;;28.93;33.51
7433;BME280;32233;49.500;7.764;2023-06-26T09:36:08;98398.94;;;29.16;34.71
7433;BME280;32233;49.500;7.764;2023-06-26T09:38:38;98390.44;;;29.59;34.33
7433;BME280;32233;49.500;7.764;2023-06-26T09:41:04;98397.09;;;30.00;33.32
7433;BME280;32233;49.500;7.764;2023-06-26T09:43:31;98406.34;;;30.30;32.26
7433;BME280;32233;49.500;7.764;2023-06-26T09:46:00;98400.00;;;30.94;30.33
7433;BME280;32233;49.500;7.764;2023-06-26T09:48:28;98400.03;;;31.14;29.77
7433;BME280;32233;49.500;7.764;2023-06-26T09:50:55;98406.72;;;30.82;30.17
7433;BME280;32233;49.500;7.764;2023-06-26T09:53:38;98408.88;;;30.72;30.37
7433;BME280;32233;49.500;7.764;2023-06-26T09:56:06;98412.06;;;30.80;29.48
7433;BME280;32233;49.500;7.764;2023-06-26T09:58:33;98417.00;;;30.85;29.46
7433;BME280;32233;49.500;7.764;2023-06-26T10:01:00;98407.03;;;30.54;29.86
7433;BME280;32233;49.500;7.764;2023-06-26T10:03:27;98417.72;;;30.21;30.45
7433;BME280;32233;49.500;7.764;2023-06-26T10:05:54;98408.00;;;30.07;30.42
7433;BME280;32233;49.500;7.764;2023-06-26T10:08:21;98413.44;;;30.25;29.83
7433;BME280;32233;49.500;7.764;2023-06-26T10:10:48;98422.47;;;30.14;29.55
7433;BME280;32233;49.500;7.764;2023-06-26T10:13:21;98409.81;;;29.95;29.69
7433;BME280;32233;49.500;7.764;2023-06-26T10:15:49;98417.91;;;30.17;30.37
7433;BME280;32233;49.500;7.764;2023-06-26T10:18:17;98424.00;;;30.45;30.58
7433;BME280;32233;49.500;7.764;2023-06-26T10:20:47;98412.09;;;30.65;28.96
7433;BME280;32233;49.500;7.764;2023-06-26T10:23:15;98397.13;;;30.59;28.63
7433;BME280;32233;49.500;7.764;2023-06-26T10:25:45;98410.03;;;30.21;29.28
7433;BME280;32233;49.500;7.764;2023-06-26T10:28:15;98400.63;;;30.39;28.87
7433;BME280;32233;49.500;7.764;2023-06-26T10:30:43;98406.94;;;30.04;28.72
7433;BME280;32233;49.500;7.764;2023-06-26T10:33:11;98403.25;;;30.28;28.86
7433;BME280;32233;49.500;7.764;2023-06-26T10:35:45;98404.88;;;30.49;28.64
7433;BME280;32233;49.500;7.764;2023-06-26T10:38:12;98400.53;;;30.48;28.50
7433;BME280;32233;49.500;7.764;2023-06-26T10:40:46;98414.50;;;30.57;27.67
7433;BME280;32233;49.500;7.764;2023-06-26T10:43:13;98405.88;;;30.76;28.55
7433;BME280;32233;49.500;7.764;2023-06-26T10:45:45;98405.09;;;30.75;27.41
7433;BME280;32233;49.500;7.764;2023-06-26T10:48:15;98403.66;;;31.00;27.13
7433;BME280;32233;49.500;7.764;2023-06-26T10:50:42;98401.50;;;31.24;26.71
7433;BME280;32233;49.500;7.764;2023-06-26T10:53:22;98417.03;;;31.20;26.41
7433;BME280;32233;49.500;7.764;2023-06-26T10:56:00;98419.69;;;31.84;25.69
7433;BME280;32233;49.500;7.764;2023-06-26T11:03:40;98424.63;;;32.99;23.42
7433;BME280;32233;49.500;7.764;2023-06-26T11:06:27;98425.34;;;33.31;22.72
7433;BME280;32233;49.500;7.764;2023-06-26T11:08:59;98418.63;;;33.23;23.94
7433;BME280;32233;49.500;7.764;2023-06-26T11:14:18;98427.91;;;32.34;24.73
7433;BME280;32233;49.500;7.764;2023-06-26T11:16:45;98423.47;;;32.02;25.01
7433;BME280;32233;49.500;7.764;2023-06-26T11:19:13;98424.13;;;31.91;24.88
7433;BME280;32233;49.500;7.764;2023-06-26T11:21:43;98428.53;;;31.98;25.48
7433;BME280;32233;49.500;7.764;2023-06-26T11:24:11;98451.53;;;31.50;24.64
7433;BME280;32233;49.500;7.764;2023-06-26T11:26:39;98447.00;;;31.58;24.27
7433;BME280;32233;49.500;7.764;2023-06-26T11:29:06;98432.63;;;31.56;24.26
7433;BME280;32233;49.500;7.764;2023-06-26T11:31:35;98455.13;;;31.50;23.50
7433;BME280;32233;49.500;7.764;2023-06-26T11:34:04;98449.22;;;31.48;24.84
7433;BME280;32233;49.500;7.764;2023-06-26T11:36:31;98445.56;;;31.83;23.70
7433;BME280;32233;49.500;7.764;2023-06-26T11:39:00;98453.16;;;31.97;24.19
7433;BME280;32233;49.500;7.764;2023-06-26T11:41:29;98447.19;;;32.15;24.05
7433;BME280;32233;49.500;7.764;2023-06-26T11:44:03;98447.78;;;32.19;23.24
7433;BME280;32233;49.500;7.764;2023-06-26T11:46:31;98440.53;;;31.92;23.75
7433;BME280;32233;49.500;7.764;2023-06-26T11:48:58;98440.72;;;32.30;23.57
7433;BME280;32233;49.500;7.764;2023-06-26T11:51:28;98439.28;;;32.40;23.98
7433;BME280;32233;49.500;7.764;2023-06-26T11:53:55;98445.50;;;32.75;23.76
7433;BME280;32233;49.500;7.764;2023-06-26T11:56:21;98442.69;;;32.49;23.26
7433;BME280;32233;49.500;7.764;2023-06-26T11:59:00;98438.66;;;32.30;24.18
7433;BME280;32233;49.500;7.764;2023-06-26T12:01:35;98444.84;;;32.34;23.55
7433;BME280;32233;49.500;7.764;2023-06-26T12:04:04;98457.16;;;32.31;23.50
7433;BME280;32233;49.500;7.764;2023-06-26T12:06:34;98439.38;;;32.51;24.60
7433;BME280;32233;49.500;7.764;2023-06-26T12:09:04;98444.22;;;31.99;24.78
7433;BME280;32233;49.500;7.764;2023-06-26T12:11:32;98448.16;;;31.66;25.07
7433;BME280;32233;49.500;7.764;2023-06-26T12:14:00;98449.56;;;32.17;24.85
7433;BME280;32233;49.500;7.764;2023-06-26T12:16:29;98445.00;;;31.99;24.51
7433;BME280;32233;49.500;7.764;2023-06-26T12:19:00;98455.06;;;31.65;24.56
7433;BME280;32233;49.500;7.764;2023-06-26T12:24:09;98448.53;;;31.18;23.61
7433;BME280;32233;49.500;7.764;2023-06-26T12:26:36;98439.44;;;31.84;22.85
7433;BME280;32233;49.500;7.764;2023-06-26T12:29:14;98451.78;;;31.87;21.57
7433;BME280;32233;49.500;7.764;2023-06-26T12:31:42;98457.63;;;31.83;21.82
7433;BME280;32233;49.500;7.764;2023-06-26T12:34:10;98454.22;;;31.79;20.72
7433;BME280;32233;49.500;7.764;2023-06-26T12:36:42;98457.13;;;31.85;20.62
7433;BME280;32233;49.500;7.764;2023-06-26T12:39:12;98466.91;;;32.10;19.65
7433;BME280;32233;49.500;7.764;2023-06-26T12:41:52;98464.16;;;32.67;19.05
7433;BME280;32233;49.500;7.764;2023-06-26T12:44:25;98475.47;;;33.30;19.39
7433;BME280;32233;49.500;7.764;2023-06-26T12:47:02;98466.75;;;33.82;16.97
7433;BME280;32233;49.500;7.764;2023-06-26T12:49:50;98465.66;;;34.39;17.80
7433;BME280;32233;49.500;7.764;2023-06-26T12:52:17;98448.22;;;34.97;16.60
7433;BME280;32233;49.500;7.764;2023-06-26T12:54:51;98462.13;;;34.95;17.46
7433;BME280;32233;49.500;7.764;2023-06-26T12:57:18;98455.75;;;33.90;17.05
7433;BME280;32233;49.500;7.764;2023-06-26T12:59:45;98461.63;;;33.01;16.98
7433;BME280;32233;49.500;7.764;2023-06-26T13:02:11;98453.28;;;32.08;19.25
7433;BME280;32233;49.500;7.764;2023-06-26T13:04:39;98464.09;;;31.49;19.04
7433;BME280;32233;49.500;7.764;2023-06-26T13:07:07;98460.09;;;31.06;19.89
7433;BME280;32233;49.500;7.764;2023-06-26T13:09:34;98449.06;;;30.87;20.12
7433;BME280;32233;49.500;7.764;2023-06-26T13:12:02;98450.34;;;31.21;20.56
7433;BME280;32233;49.500;7.764;2023-06-26T13:14:30;98449.97;;;31.28;18.93
7433;BME280;32233;49.500;7.764;2023-06-26T13:16:57;98467.75;;;31.05;19.93
7433;BME280;32233;49.500;7.764;2023-06-26T13:19:23;98460.97;;;30.97;20.87
7433;BME280;32233;49.500;7.764;2023-06-26T13:21:50;98473.94;;;30.74;20.88
7433;BME280;32233;49.500;7.764;2023-06-26T13:24:17;98472.19;;;30.77;19.73
7433;BME280;32233;49.500;7.764;2023-06-26T13:26:47;98478.50;;;30.71;19.33
7433;BME280;32233;49.500;7.764;2023-06-26T13:29:13;98468.38;;;30.80;19.69